sensor_id;sensor_type;location;lat;lon;timestamp;P1;durP1;ratioP1;P2;durP2;ratioP2
19727;SDS011;10015;52.530;13.390;2024-03-02T00:00:32;62.03;;;27.17;;
19727;SDS011;10015;52.530;13.390;2024-03-02T00:02:58;56.97;;;27.40;;
19727;SDS011;10015;52.530;13.390;2024-03-02T00:05:24;61.10;;;27.77;;
19727;SDS011;10015;52.530;13.390;2024-03-02T00:07:57;57.57;;;26.47;;
19727;SDS011;10015;52.530;13.390;2024-03-02T00:10:27;49.83;;;25.53;;
19727;SDS011;10015;52.530;13.390;2024-03-02T00:13:06;59.47;;;26.80;;
19727;SDS011;10015;52.530;13.390;2024-03-02T00:18:05;60.43;;;28.23;;
19727;SDS011;10015;52.530;13.390;2024-03-02T00:20:35;60.20;;;27.90;;
19727;SDS011;10015;52.530;13.390;2024-03-02T00:23:06;57.60;;;27.33;;
19727;SDS011;10015;52.530;13.390;2024-03-02T00:30:59;62.17;;;27.20;;
19727;SDS011;10015;52.530;13.390;2024-03-02T00:33:32;59.07;;;29.07;;
19727;SDS011;10015;52.530;13.390;2024-03-02T00:35:59;65.07;;;30.33;;
19727;SDS011;10015;52.530;13.390;2024-03-02T00:38:27;61.77;;;28.70;;
19727;SDS011;10015;52.530;13.390;2024-03-02T00:40:54;62.90;;;29.83;;
19727;SDS011;10015;52.530;13.390;2024-03-02T00:46:20;60.20;;;28.33;;
19727;SDS011;10015;52.530;13.390;2024-03-02T00:48:55;63.37;;;30.00;;
19727;SDS011;10015;52.530;13.390;2024-03-02T00:51:23;64.03;;;30.67;;
19727;SDS011;10015;52.530;13.390;2024-03-02T00:53:53;62.37;;;31.03;;
19727;SDS011;10015;52.530;13.390;2024-03-02T00:56:22;68.67;;;31.73;;
19727;SDS011;10015;52.530;13.390;2024-03-02T00:58:49;64.90;;;30.50;;
19727;SDS011;10015;52.530;13.390;2024-03-02T01:01:15;63.17;;;29.07;;
19727;SDS011;10015;52.530;13.390;2024-03-02T01:03:42;61.07;;;28.47;;
19727;SDS011;10015;52.530;13.390;2024-03-02T01:06:08;60.23;;;29.57;;
19727;SDS011;10015;52.530;13.390;2024-03-02T01:08:35;57.30;;;28.57;;
19727;SDS011;10015;52.530;13.390;2024-03-02T01:11:03;65.57;;;28.73;;
19727;SDS011;10015;52.530;13.390;2024-03-02T01:13:30;65.07;;;29.53;;
19727;SDS011;10015;52.530;13.390;2024-03-02T01:15:56;61.47;;;29.10;;
19727;SDS011;10015;52.530;13.390;2024-03-02T01:18:22;57.83;;;29.17;;
19727;SDS011;10015;52.530;13.390;2024-03-02T01:20:49;60.30;;;29.67;;
19727;SDS011;10015;52.530;13.390;2024-03-02T01:23:20;64.83;;;31.17;;
19727;SDS011;10015;52.530;13.390;2024-03-02T01:25:47;64.53;;;31.07;;
19727;SDS011;10015;52.530;13.390;2024-03-02T01:28:13;65.57;;;30.63;;
19727;SDS011;10015;52.530;13.390;2024-03-02T01:30:40;63.63;;;31.90;;
19727;SDS011;10015;52.530;13.390;2024-03-02T01:33:06;69.23;;;31.30;;
19727;SDS011;10015;52.530;13.390;2024-03-02T01:35:33;64.63;;;31.37;;
19727;SDS011;10015;52.530;13.390;2024-03-02T01:38:03;64.27;;;30.77;;
19727;SDS011;10015;52.530;13.390;2024-03-02T01:40:31;66.47;;;30.80;;
19727;SDS011;10015;52.530;13.390;2024-03-02T01:43:01;65.23;;;30.73;;
19727;SDS011;10015;52.530;13.390;2024-03-02T01:45:28;66.20;;;31.00;;
19727;SDS011;10015;52.530;13.390;2024-03-02T01:47:54;69.23;;;30.83;;
19727;SDS011;10015;52.530;13.390;2024-03-02T01:50:24;70.03;;;31.60;;
19727;SDS011;10015;52.530;13.390;2024-03-02T01:52:57;70.33;;;31.80;;
19727;SDS011;10015;52.530;13.390;2024-03-02T01:55:25;75.50;;;33.43;;
19727;SDS011;10015;52.530;13.390;2024-03-02T01:57:52;68.13;;;32.03;;
19727;SDS011;10015;52.530;13.390;2024-03-02T02:00:19;72.33;;;33.03;;
19727;SDS011;10015;52.530;13.390;2024-03-02T02:02:47;65.10;;;31.17;;
19727;SDS011;10015;52.530;13.390;2024-03-02T02:05:13;63.57;;;30.07;;
19727;SDS011;10015;52.530;13.390;2024-03-02T02:07:41;71.87;;;32.30;;
19727;SDS011;10015;52.530;13.390;2024-03-02T02:10:08;73.80;;;33.20;;
19727;SDS011;10015;52.530;13.390;2024-03-02T02:12:35;68.10;;;33.00;;
19727;SDS011;10015;52.530;13.390;2024-03-02T02:15:01;71.57;;;32.63;;
19727;SDS011;10015;52.530;13.390;2024-03-02T02:17:29;68.90;;;31.87;;
19727;SDS011;10015;52.530;13.390;2024-03-02T02:19:55;68.17;;;31.23;;
19727;SDS011;10015;52.530;13.390;2024-03-02T02:22:21;69.87;;;32.60;;
19727;SDS011;10015;52.530;13.390;2024-03-02T02:24:47;67.87;;;32.33;;
19727;SDS011;10015;52.530;13.390;2024-03-02T02:27:12;62.80;;;31.73;;
19727;SDS011;10015;52.530;13.390;2024-03-02T02:29:40;75.43;;;32.30;;
19727;SDS011;10015;52.530;13.390;2024-03-02T02:32:07;70.70;;;32.63;;
19727;SDS011;10015;52.530;13.390;2024-03-02T02:34:33;66.83;;;32.47;;
19727;SDS011;10015;52.530;13.390;2024-03-02T02:36:59;66.90;;;32.43;;
19727;SDS011;10015;52.530;13.390;2024-03-02T02:39:25;71.37;;;33.13;;
19727;SDS011;10015;52.530;13.390;2024-03-02T02:41:51;79.23;;;35.33;;
19727;SDS011;10015;52.530;13.390;2024-03-02T02:44:17;74.13;;;33.47;;
19727;SDS011;10015;52.530;13.390;2024-03-02T02:46:43;73.50;;;32.17;;
19727;SDS011;10015;52.530;13.390;2024-03-02T02:49:08;76.77;;;32.93;;
19727;SDS011;10015;52.530;13.390;2024-03-02T02:51:34;70.63;;;33.97;;
19727;SDS011;10015;52.530;13.390;2024-03-02T02:54:00;68.23;;;32.43;;
19727;SDS011;10015;52.530;13.390;2024-03-02T02:56:26;73.07;;;31.87;;
19727;SDS011;10015;52.530;13.390;2024-03-02T02:58:52;66.43;;;31.50;;
19727;SDS011;10015;52.530;13.390;2024-03-02T03:01:18;72.43;;;34.40;;
19727;SDS011;10015;52.530;13.390;2024-03-02T03:03:44;66.67;;;33.03;;
19727;SDS011;10015;52.530;13.390;2024-03-02T03:06:11;71.67;;;33.77;;
19727;SDS011;10015;52.530;13.390;2024-03-02T03:08:37;68.63;;;32.77;;
19727;SDS011;10015;52.530;13.390;2024-03-02T03:11:03;68.47;;;32.43;;
19727;SDS011;10015;52.530;13.390;2024-03-02T03:13:30;71.23;;;32.30;;
19727;SDS011;10015;52.530;13.390;2024-03-02T03:15:59;71.53;;;32.70;;
19727;SDS011;10015;52.530;13.390;2024-03-02T03:18:25;69.07;;;32.63;;
19727;SDS011;10015;52.530;13.390;2024-03-02T03:20:52;73.00;;;34.03;;
19727;SDS011;10015;52.530;13.390;2024-03-02T03:23:18;68.90;;;30.63;;
19727;SDS011;10015;52.530;13.390;2024-03-02T03:25:46;66.03;;;31.17;;
19727;SDS011;10015;52.530;13.390;2024-03-02T03:28:12;76.43;;;34.40;;
19727;SDS011;10015;52.530;13.390;2024-03-02T03:30:38;76.63;;;35.00;;
19727;SDS011;10015;52.530;13.390;2024-03-02T03:33:05;75.07;;;32.43;;
19727;SDS011;10015;52.530;13.390;2024-03-02T03:35:31;74.40;;;32.77;;
19727;SDS011;10015;52.530;13.390;2024-03-02T03:37:58;72.67;;;34.10;;
19727;SDS011;10015;52.530;13.390;2024-03-02T03:40:24;71.20;;;32.50;;
19727;SDS011;10015;52.530;13.390;2024-03-02T03:42:50;69.73;;;32.13;;
19727;SDS011;10015;52.530;13.390;2024-03-02T03:45:16;72.17;;;33.83;;
19727;SDS011;10015;52.530;13.390;2024-03-02T03:47:42;68.40;;;31.40;;
19727;SDS011;10015;52.530;13.390;2024-03-02T03:50:08;73.10;;;32.80;;
19727;SDS011;10015;52.530;13.390;2024-03-02T03:52:34;64.70;;;32.17;;
19727;SDS011;10015;52.530;13.390;2024-03-02T03:55:00;70.00;;;32.77;;
19727;SDS011;10015;52.530;13.390;2024-03-02T03:57:26;68.57;;;31.77;;
19727;SDS011;10015;52.530;13.390;2024-03-02T03:59:52;62.70;;;30.53;;
19727;SDS011;10015;52.530;13.390;2024-03-02T04:02:22;69.00;;;31.70;;
19727;SDS011;10015;52.530;13.390;2024-03-02T04:04:49;67.50;;;32.00;;
19727;SDS011;10015;52.530;13.390;2024-03-02T04:07:15;63.33;;;30.17;;
19727;SDS011;10015;52.530;13.390;2024-03-02T04:09:41;70.57;;;32.10;;
19727;SDS011;10015;52.530;13.390;2024-03-02T04:12:07;61.20;;;29.53;;
19727;SDS011;10015;52.530;13.390;2024-03-02T04:14:33;69.20;;;31.10;;
19727;SDS011;10015;52.530;13.390;2024-03-02T04:16:59;64.23;;;30.17;;
19727;SDS011;10015;52.530;13.390;2024-03-02T04:19:25;68.67;;;31.20;;
19727;SDS011;10015;52.530;13.390;2024-03-02T04:21:51;67.43;;;31.27;;
19727;SDS011;10015;52.530;13.390;2024-03-02T04:24:18;61.17;;;29.70;;
19727;SDS011;10015;52.530;13.390;2024-03-02T04:26:43;68.93;;;31.30;;
19727;SDS011;10015;52.530;13.390;2024-03-02T04:29:10;61.30;;;29.93;;
19727;SDS011;10015;52.530;13.390;2024-03-02T04:31:35;69.53;;;30.40;;
19727;SDS011;10015;52.530;13.390;2024-03-02T04:34:01;68.20;;;30.67;;
19727;SDS011;10015;52.530;13.390;2024-03-02T04:36:27;66.33;;;30.60;;
19727;SDS011;10015;52.530;13.390;2024-03-02T04:38:53;63.10;;;30.00;;
19727;SDS011;10015;52.530;13.390;2024-03-02T04:41:19;58.87;;;28.83;;
19727;SDS011;10015;52.530;13.390;2024-03-02T04:43:45;64.40;;;30.10;;
19727;SDS011;10015;52.530;13.390;2024-03-02T04:46:10;61.30;;;28.70;;
19727;SDS011;10015;52.530;13.390;2024-03-02T04:48:36;58.10;;;27.47;;
19727;SDS011;10015;52.530;13.390;2024-03-02T04:51:02;58.07;;;28.07;;
19727;SDS011;10015;52.530;13.390;2024-03-02T04:53:28;58.47;;;27.80;;
19727;SDS011;10015;52.530;13.390;2024-03-02T04:55:54;56.40;;;28.57;;
19727;SDS011;10015;52.530;13.390;2024-03-02T04:58:49;65.47;;;28.60;;
19727;SDS011;10015;52.530;13.390;2024-03-02T05:01:14;60.57;;;29.13;;
19727;SDS011;10015;52.530;13.390;2024-03-02T05:03:42;63.53;;;29.57;;
19727;SDS011;10015;52.530;13.390;2024-03-02T05:06:08;62.57;;;29.30;;
19727;SDS011;10015;52.530;13.390;2024-03-02T05:08:35;63.63;;;28.80;;
19727;SDS011;10015;52.530;13.390;2024-03-02T05:11:02;54.37;;;27.27;;
19727;SDS011;10015;52.530;13.390;2024-03-02T05:13:47;57.10;;;27.10;;
19727;SDS011;10015;52.530;13.390;2024-03-02T05:16:13;61.10;;;28.50;;
19727;SDS011;10015;52.530;13.390;2024-03-02T05:18:39;59.53;;;27.50;;
19727;SDS011;10015;52.530;13.390;2024-03-02T05:21:05;53.13;;;25.93;;
19727;SDS011;10015;52.530;13.390;2024-03-02T05:23:31;56.07;;;27.90;;
19727;SDS011;10015;52.530;13.390;2024-03-02T05:25:56;57.23;;;27.03;;
19727;SDS011;10015;52.530;13.390;2024-03-02T05:28:22;54.63;;;26.73;;
19727;SDS011;10015;52.530;13.390;2024-03-02T05:30:48;55.10;;;27.43;;
19727;SDS011;10015;52.530;13.390;2024-03-02T05:33:14;58.43;;;27.03;;
19727;SDS011;10015;52.530;13.390;2024-03-02T05:35:40;55.27;;;26.80;;
19727;SDS011;10015;52.530;13.390;2024-03-02T05:38:06;59.30;;;27.77;;
19727;SDS011;10015;52.530;13.390;2024-03-02T05:40:32;53.30;;;25.93;;
19727;SDS011;10015;52.530;13.390;2024-03-02T05:42:58;58.40;;;28.10;;
19727;SDS011;10015;52.530;13.390;2024-03-02T05:45:23;57.33;;;28.33;;
19727;SDS011;10015;52.530;13.390;2024-03-02T05:47:49;60.80;;;28.83;;
19727;SDS011;10015;52.530;13.390;2024-03-02T05:50:15;63.73;;;28.60;;
19727;SDS011;10015;52.530;13.390;2024-03-02T05:52:41;62.53;;;28.73;;
19727;SDS011;10015;52.530;13.390;2024-03-02T05:55:07;65.57;;;30.63;;
19727;SDS011;10015;52.530;13.390;2024-03-02T05:57:33;63.33;;;29.03;;
19727;SDS011;10015;52.530;13.390;2024-03-02T06:00:19;63.47;;;29.23;;
19727;SDS011;10015;52.530;13.390;2024-03-02T06:02:45;66.73;;;30.43;;
19727;SDS011;10015;52.530;13.390;2024-03-02T06:05:11;62.43;;;29.67;;
19727;SDS011;10015;52.530;13.390;2024-03-02T06:07:37;67.57;;;29.63;;
19727;SDS011;10015;52.530;13.390;2024-03-02T06:10:03;60.87;;;30.07;;
19727;SDS011;10015;52.530;13.390;2024-03-02T06:12:30;64.53;;;29.60;;
19727;SDS011;10015;52.530;13.390;2024-03-02T06:14:57;61.20;;;29.67;;
19727;SDS011;10015;52.530;13.390;2024-03-02T06:17:23;65.20;;;30.20;;
19727;SDS011;10015;52.530;13.390;2024-03-02T06:19:49;70.13;;;30.53;;
19727;SDS011;10015;52.530;13.390;2024-03-02T06:22:15;65.90;;;31.07;;
19727;SDS011;10015;52.530;13.390;2024-03-02T06:24:41;71.00;;;30.87;;
19727;SDS011;10015;52.530;13.390;2024-03-02T06:27:07;62.83;;;29.87;;
19727;SDS011;10015;52.530;13.390;2024-03-02T06:29:33;68.80;;;30.63;;
19727;SDS011;10015;52.530;13.390;2024-03-02T06:31:59;67.73;;;30.90;;
19727;SDS011;10015;52.530;13.390;2024-03-02T06:34:25;68.43;;;30.20;;
19727;SDS011;10015;52.530;13.390;2024-03-02T06:36:51;65.77;;;30.53;;
19727;SDS011;10015;52.530;13.390;2024-03-02T06:39:17;73.37;;;31.80;;
19727;SDS011;10015;52.530;13.390;2024-03-02T06:41:43;65.10;;;30.70;;
19727;SDS011;10015;52.530;13.390;2024-03-02T06:44:09;66.67;;;30.30;;
19727;SDS011;10015;52.530;13.390;2024-03-02T06:46:35;61.80;;;29.40;;
19727;SDS011;10015;52.530;13.390;2024-03-02T06:49:01;63.73;;;29.03;;
19727;SDS011;10015;52.530;13.390;2024-03-02T06:51:28;65.73;;;30.23;;
19727;SDS011;10015;52.530;13.390;2024-03-02T06:53:53;64.23;;;29.77;;
19727;SDS011;10015;52.530;13.390;2024-03-02T06:56:22;66.37;;;29.20;;
19727;SDS011;10015;52.530;13.390;2024-03-02T06:58:47;64.27;;;30.50;;
19727;SDS011;10015;52.530;13.390;2024-03-02T07:01:13;63.93;;;29.43;;
19727;SDS011;10015;52.530;13.390;2024-03-02T07:03:41;67.77;;;29.90;;
19727;SDS011;10015;52.530;13.390;2024-03-02T07:06:06;64.43;;;29.10;;
19727;SDS011;10015;52.530;13.390;2024-03-02T07:08:33;63.97;;;29.90;;
19727;SDS011;10015;52.530;13.390;2024-03-02T07:10:59;67.00;;;30.03;;
19727;SDS011;10015;52.530;13.390;2024-03-02T07:13:26;64.23;;;29.93;;
19727;SDS011;10015;52.530;13.390;2024-03-02T07:15:52;62.30;;;29.77;;
19727;SDS011;10015;52.530;13.390;2024-03-02T07:18:36;67.70;;;30.13;;
19727;SDS011;10015;52.530;13.390;2024-03-02T07:21:10;65.43;;;30.03;;
19727;SDS011;10015;52.530;13.390;2024-03-02T07:23:36;64.80;;;29.17;;
19727;SDS011;10015;52.530;13.390;2024-03-02T07:26:02;66.73;;;30.20;;
19727;SDS011;10015;52.530;13.390;2024-03-02T07:28:28;70.43;;;31.10;;
19727;SDS011;10015;52.530;13.390;2024-03-02T07:31:01;69.73;;;31.47;;
19727;SDS011;10015;52.530;13.390;2024-03-02T07:33:33;66.80;;;29.90;;
19727;SDS011;10015;52.530;13.390;2024-03-02T07:35:59;65.53;;;30.40;;
19727;SDS011;10015;52.530;13.390;2024-03-02T07:38:26;72.07;;;31.27;;
19727;SDS011;10015;52.530;13.390;2024-03-02T07:40:54;67.13;;;30.87;;
19727;SDS011;10015;52.530;13.390;2024-03-02T07:43:21;70.90;;;29.93;;
19727;SDS011;10015;52.530;13.390;2024-03-02T07:45:47;63.33;;;28.90;;
19727;SDS011;10015;52.530;13.390;2024-03-02T07:48:14;70.93;;;30.37;;
19727;SDS011;10015;52.530;13.390;2024-03-02T07:50:40;68.53;;;30.30;;
19727;SDS011;10015;52.530;13.390;2024-03-02T07:53:06;70.20;;;29.87;;
19727;SDS011;10015;52.530;13.390;2024-03-02T07:55:35;70.27;;;29.63;;
19727;SDS011;10015;52.530;13.390;2024-03-02T07:58:02;63.60;;;29.33;;
19727;SDS011;10015;52.530;13.390;2024-03-02T08:00:28;66.27;;;29.70;;
19727;SDS011;10015;52.530;13.390;2024-03-02T08:02:54;68.97;;;30.00;;
19727;SDS011;10015;52.530;13.390;2024-03-02T08:05:22;63.90;;;28.67;;
19727;SDS011;10015;52.530;13.390;2024-03-02T08:07:49;64.63;;;29.77;;
19727;SDS011;10015;52.530;13.390;2024-03-02T08:10:18;65.53;;;29.07;;
19727;SDS011;10015;52.530;13.390;2024-03-02T08:12:44;64.93;;;28.50;;
19727;SDS011;10015;52.530;13.390;2024-03-02T08:15:10;65.13;;;28.83;;
19727;SDS011;10015;52.530;13.390;2024-03-02T08:17:38;69.70;;;30.40;;
19727;SDS011;10015;52.530;13.390;2024-03-02T08:20:10;68.97;;;29.20;;
19727;SDS011;10015;52.530;13.390;2024-03-02T08:22:38;71.73;;;30.50;;
19727;SDS011;10015;52.530;13.390;2024-03-02T08:25:04;67.07;;;29.80;;
19727;SDS011;10015;52.530;13.390;2024-03-02T08:27:31;64.63;;;30.43;;
19727;SDS011;10015;52.530;13.390;2024-03-02T08:29:57;72.10;;;31.47;;
19727;SDS011;10015;52.530;13.390;2024-03-02T08:32:23;72.03;;;32.10;;
19727;SDS011;10015;52.530;13.390;2024-03-02T08:34:49;71.53;;;31.67;;
19727;SDS011;10015;52.530;13.390;2024-03-02T08:37:15;63.40;;;29.70;;
19727;SDS011;10015;52.530;13.390;2024-03-02T08:39:41;66.10;;;30.03;;
19727;SDS011;10015;52.530;13.390;2024-03-02T08:42:08;67.90;;;29.73;;
19727;SDS011;10015;52.530;13.390;2024-03-02T08:44:34;73.63;;;29.90;;
19727;SDS011;10015;52.530;13.390;2024-03-02T08:47:02;65.60;;;29.33;;
19727;SDS011;10015;52.530;13.390;2024-03-02T08:49:28;68.97;;;29.23;;
19727;SDS011;10015;52.530;13.390;2024-03-02T08:51:56;64.37;;;29.37;;
19727;SDS011;10015;52.530;13.390;2024-03-02T08:54:23;59.53;;;28.93;;
19727;SDS011;10015;52.530;13.390;2024-03-02T08:56:50;65.67;;;29.30;;
19727;SDS011;10015;52.530;13.390;2024-03-02T08:59:18;67.60;;;28.73;;
19727;SDS011;10015;52.530;13.390;2024-03-02T09:01:44;62.30;;;27.93;;
19727;SDS011;10015;52.530;13.390;2024-03-02T09:04:10;61.03;;;27.67;;
19727;SDS011;10015;52.530;13.390;2024-03-02T09:06:36;63.50;;;28.40;;
19727;SDS011;10015;52.530;13.390;2024-03-02T09:09:02;63.60;;;28.30;;
19727;SDS011;10015;52.530;13.390;2024-03-02T09:11:29;60.60;;;27.80;;
19727;SDS011;10015;52.530;13.390;2024-03-02T09:13:55;59.97;;;28.13;;
19727;SDS011;10015;52.530;13.390;2024-03-02T09:16:23;60.40;;;27.43;;
19727;SDS011;10015;52.530;13.390;2024-03-02T09:18:49;61.07;;;27.27;;
19727;SDS011;10015;52.530;13.390;2024-03-02T09:21:18;58.70;;;27.63;;
19727;SDS011;10015;52.530;13.390;2024-03-02T09:23:45;57.60;;;28.10;;
19727;SDS011;10015;52.530;13.390;2024-03-02T09:26:13;62.23;;;27.17;;
19727;SDS011;10015;52.530;13.390;2024-03-02T09:28:42;62.43;;;26.87;;
19727;SDS011;10015;52.530;13.390;2024-03-02T09:31:09;61.03;;;28.87;;
19727;SDS011;10015;52.530;13.390;2024-03-02T09:33:36;63.93;;;28.83;;
19727;SDS011;10015;52.530;13.390;2024-03-02T09:36:03;58.17;;;27.77;;
19727;SDS011;10015;52.530;13.390;2024-03-02T09:38:31;63.90;;;28.83;;
19727;SDS011;10015;52.530;13.390;2024-03-02T09:40:59;61.17;;;27.63;;
19727;SDS011;10015;52.530;13.390;2024-03-02T09:43:27;60.33;;;27.47;;
19727;SDS011;10015;52.530;13.390;2024-03-02T09:45:53;59.87;;;26.90;;
19727;SDS011;10015;52.530;13.390;2024-03-02T09:48:19;58.23;;;27.23;;
19727;SDS011;10015;52.530;13.390;2024-03-02T09:50:46;55.83;;;26.90;;
19727;SDS011;10015;52.530;13.390;2024-03-02T09:53:13;60.03;;;26.53;;
19727;SDS011;10015;52.530;13.390;2024-03-02T09:55:40;57.50;;;25.50;;
19727;SDS011;10015;52.530;13.390;2024-03-02T09:58:09;58.87;;;27.37;;
19727;SDS011;10015;52.530;13.390;2024-03-02T10:00:35;57.13;;;25.67;;
19727;SDS011;10015;52.530;13.390;2024-03-02T10:03:02;57.10;;;27.33;;
19727;SDS011;10015;52.530;13.390;2024-03-02T10:05:31;56.03;;;25.13;;
19727;SDS011;10015;52.530;13.390;2024-03-02T10:08:03;54.73;;;25.27;;
19727;SDS011;10015;52.530;13.390;2024-03-02T10:10:36;54.30;;;25.97;;
19727;SDS011;10015;52.530;13.390;2024-03-02T10:13:07;52.93;;;25.13;;
19727;SDS011;10015;52.530;13.390;2024-03-02T10:15:34;49.93;;;23.60;;
19727;SDS011;10015;52.530;13.390;2024-03-02T10:18:04;52.10;;;24.87;;
19727;SDS011;10015;52.530;13.390;2024-03-02T10:20:31;51.30;;;23.83;;
19727;SDS011;10015;52.530;13.390;2024-03-02T10:23:09;53.30;;;23.90;;
19727;SDS011;10015;52.530;13.390;2024-03-02T10:25:46;48.03;;;23.73;;
19727;SDS011;10015;52.530;13.390;2024-03-02T10:28:11;46.00;;;22.43;;
19727;SDS011;10015;52.530;13.390;2024-03-02T10:30:37;43.67;;;21.03;;
19727;SDS011;10015;52.530;13.390;2024-03-02T10:33:03;48.17;;;22.33;;
19727;SDS011;10015;52.530;13.390;2024-03-02T10:35:32;47.47;;;22.97;;
19727;SDS011;10015;52.530;13.390;2024-03-02T10:38:06;50.30;;;23.60;;
19727;SDS011;10015;52.530;13.390;2024-03-02T10:40:32;45.03;;;21.63;;
19727;SDS011;10015;52.530;13.390;2024-03-02T10:42:58;40.60;;;19.83;;
19727;SDS011;10015;52.530;13.390;2024-03-02T10:45:27;45.77;;;21.10;;
19727;SDS011;10015;52.530;13.390;2024-03-02T10:47:54;46.87;;;23.13;;
19727;SDS011;10015;52.530;13.390;2024-03-02T10:50:21;45.10;;;22.20;;
19727;SDS011;10015;52.530;13.390;2024-03-02T10:52:47;44.63;;;21.23;;
19727;SDS011;10015;52.530;13.390;2024-03-02T10:55:13;41.33;;;20.57;;
19727;SDS011;10015;52.530;13.390;2024-03-02T10:57:45;41.43;;;20.77;;
19727;SDS011;10015;52.530;13.390;2024-03-02T11:00:20;43.10;;;19.77;;
19727;SDS011;10015;52.530;13.390;2024-03-02T11:03:05;38.13;;;18.73;;
19727;SDS011;10015;52.530;13.390;2024-03-02T11:05:38;37.17;;;19.23;;
19727;SDS011;10015;52.530;13.390;2024-03-02T11:08:06;35.90;;;18.13;;
19727;SDS011;10015;52.530;13.390;2024-03-02T11:10:35;38.40;;;18.20;;
19727;SDS011;10015;52.530;13.390;2024-03-02T11:13:16;35.13;;;16.80;;
19727;SDS011;10015;52.530;13.390;2024-03-02T11:15:59;36.77;;;18.67;;
19727;SDS011;10015;52.530;13.390;2024-03-02T11:18:51;36.10;;;16.97;;
19727;SDS011;10015;52.530;13.390;2024-03-02T11:21:17;38.40;;;17.53;;
19727;SDS011;10015;52.530;13.390;2024-03-02T11:23:43;37.57;;;18.23;;
19727;SDS011;10015;52.530;13.390;2024-03-02T11:26:28;38.53;;;18.27;;
19727;SDS011;10015;52.530;13.390;2024-03-02T11:28:54;32.77;;;17.10;;
19727;SDS011;10015;52.530;13.390;2024-03-02T11:31:21;32.93;;;16.87;;
19727;SDS011;10015;52.530;13.390;2024-03-02T11:33:47;32.47;;;16.87;;
19727;SDS011;10015;52.530;13.390;2024-03-02T11:36:13;30.53;;;16.13;;
19727;SDS011;10015;52.530;13.390;2024-03-02T11:38:40;35.43;;;17.47;;
19727;SDS011;10015;52.530;13.390;2024-03-02T11:41:10;34.00;;;17.37;;
19727;SDS011;10015;52.530;13.390;2024-03-02T11:43:37;35.07;;;17.47;;
19727;SDS011;10015;52.530;13.390;2024-03-02T11:46:05;33.63;;;16.60;;
19727;SDS011;10015;52.530;13.390;2024-03-02T11:48:35;34.80;;;16.47;;
19727;SDS011;10015;52.530;13.390;2024-03-02T11:51:03;30.47;;;15.80;;
19727;SDS011;10015;52.530;13.390;2024-03-02T11:53:29;29.03;;;16.17;;
19727;SDS011;10015;52.530;13.390;2024-03-02T11:55:57;32.60;;;16.37;;
19727;SDS011;10015;52.530;13.390;2024-03-02T11:58:24;32.50;;;16.97;;
19727;SDS011;10015;52.530;13.390;2024-03-02T12:00:55;35.87;;;16.87;;
19727;SDS011;10015;52.530;13.390;2024-03-02T12:03:22;34.97;;;16.90;;
19727;SDS011;10015;52.530;13.390;2024-03-02T12:05:50;34.43;;;16.00;;
19727;SDS011;10015;52.530;13.390;2024-03-02T12:08:18;33.93;;;16.70;;
19727;SDS011;10015;52.530;13.390;2024-03-02T12:10:55;32.40;;;15.83;;
19727;SDS011;10015;52.530;13.390;2024-03-02T12:13:25;35.20;;;15.27;;
19727;SDS011;10015;52.530;13.390;2024-03-02T12:15:54;31.17;;;15.53;;
19727;SDS011;10015;52.530;13.390;2024-03-02T12:18:24;35.07;;;16.73;;
19727;SDS011;10015;52.530;13.390;2024-03-02T12:20:50;48.37;;;24.43;;
19727;SDS011;10015;52.530;13.390;2024-03-02T12:23:23;46.87;;;23.53;;
19727;SDS011;10015;52.530;13.390;2024-03-02T12:25:50;30.90;;;15.80;;
19727;SDS011;10015;52.530;13.390;2024-03-02T12:28:16;32.67;;;15.93;;
19727;SDS011;10015;52.530;13.390;2024-03-02T12:30:42;31.87;;;15.77;;
19727;SDS011;10015;52.530;13.390;2024-03-02T12:33:10;27.27;;;14.13;;
19727;SDS011;10015;52.530;13.390;2024-03-02T12:35:36;26.93;;;14.20;;
19727;SDS011;10015;52.530;13.390;2024-03-02T12:38:02;30.57;;;14.57;;
19727;SDS011;10015;52.530;13.390;2024-03-02T12:40:30;27.27;;;14.63;;
19727;SDS011;10015;52.530;13.390;2024-03-02T12:42:56;29.73;;;14.63;;
19727;SDS011;10015;52.530;13.390;2024-03-02T12:45:22;24.20;;;13.47;;
19727;SDS011;10015;52.530;13.390;2024-03-02T12:47:51;28.53;;;14.20;;
19727;SDS011;10015;52.530;13.390;2024-03-02T12:50:17;31.30;;;15.17;;
19727;SDS011;10015;52.530;13.390;2024-03-02T12:52:43;28.37;;;14.97;;
19727;SDS011;10015;52.530;13.390;2024-03-02T12:55:15;30.67;;;15.90;;
19727;SDS011;10015;52.530;13.390;2024-03-02T12:57:42;29.97;;;14.93;;
19727;SDS011;10015;52.530;13.390;2024-03-02T13:00:09;27.17;;;14.87;;
19727;SDS011;10015;52.530;13.390;2024-03-02T13:02:35;27.93;;;14.93;;
19727;SDS011;10015;52.530;13.390;2024-03-02T13:05:04;28.60;;;14.27;;
19727;SDS011;10015;52.530;13.390;2024-03-02T13:07:36;26.70;;;14.03;;
19727;SDS011;10015;52.530;13.390;2024-03-02T13:10:03;24.50;;;13.83;;
19727;SDS011;10015;52.530;13.390;2024-03-02T13:12:30;25.93;;;14.03;;
19727;SDS011;10015;52.530;13.390;2024-03-02T13:14:57;26.43;;;14.17;;
19727;SDS011;10015;52.530;13.390;2024-03-02T13:17:27;24.97;;;13.40;;
19727;SDS011;10015;52.530;13.390;2024-03-02T13:19:57;25.70;;;13.97;;
19727;SDS011;10015;52.530;13.390;2024-03-02T13:22:24;25.87;;;13.40;;
19727;SDS011;10015;52.530;13.390;2024-03-02T13:24:51;26.63;;;14.07;;
19727;SDS011;10015;52.530;13.390;2024-03-02T13:27:19;24.13;;;13.03;;
19727;SDS011;10015;52.530;13.390;2024-03-02T13:29:46;25.13;;;13.30;;
19727;SDS011;10015;52.530;13.390;2024-03-02T13:32:13;27.47;;;14.77;;
19727;SDS011;10015;52.530;13.390;2024-03-02T13:34:42;27.67;;;14.10;;
19727;SDS011;10015;52.530;13.390;2024-03-02T13:37:08;22.53;;;12.57;;
19727;SDS011;10015;52.530;13.390;2024-03-02T13:39:34;23.20;;;12.53;;
19727;SDS011;10015;52.530;13.390;2024-03-02T13:42:09;23.27;;;12.93;;
19727;SDS011;10015;52.530;13.390;2024-03-02T13:44:37;25.17;;;12.80;;
19727;SDS011;10015;52.530;13.390;2024-03-02T13:47:03;25.13;;;13.60;;
19727;SDS011;10015;52.530;13.390;2024-03-02T13:49:30;24.23;;;13.33;;
19727;SDS011;10015;52.530;13.390;2024-03-02T13:52:00;23.00;;;12.73;;
19727;SDS011;10015;52.530;13.390;2024-03-02T13:54:29;26.07;;;13.40;;
19727;SDS011;10015;52.530;13.390;2024-03-02T13:56:56;21.53;;;12.57;;
19727;SDS011;10015;52.530;13.390;2024-03-02T13:59:27;29.63;;;14.20;;
19727;SDS011;10015;52.530;13.390;2024-03-02T14:01:53;25.50;;;13.50;;
19727;SDS011;10015;52.530;13.390;2024-03-02T14:04:19;24.23;;;12.50;;
19727;SDS011;10015;52.530;13.390;2024-03-02T14:06:45;24.77;;;13.40;;
19727;SDS011;10015;52.530;13.390;2024-03-02T14:09:11;23.03;;;12.50;;
19727;SDS011;10015;52.530;13.390;2024-03-02T14:11:37;20.90;;;11.97;;
19727;SDS011;10015;52.530;13.390;2024-03-02T14:14:03;20.13;;;11.57;;
19727;SDS011;10015;52.530;13.390;2024-03-02T14:16:29;26.90;;;12.90;;
19727;SDS011;10015;52.530;13.390;2024-03-02T14:18:55;22.90;;;12.13;;
19727;SDS011;10015;52.530;13.390;2024-03-02T14:21:21;24.27;;;13.00;;